Time;durP1;ratioP1;P1;durP2;ratioP2;P2;SDS_P1;SDS_P2;PMS_P1;PMS_P2;Temp;Humidity;BMP_temperature;BMP_pressure;BME280_temperature;BME280_humidity;BME280_pressure;Samples;Min_cycle;Max_cycle;Signal;HPM_P1;HPM_P2
2023/03/29 12:02:12;;;;;;;11.33;7.03;;;10.30;97.10;;;9.61;69.19;100840.19;4997273;28;20227;-77
2023/03/29 12:04:52;;;;;;;11.23;7.03;;;10.30;97.20;;;9.67;69.97;100844.06;4996424;28;20640;-77
2023/03/29 12:07:32;;;;;;;13.07;7.80;;;10.40;97.40;;;9.65;69.55;100841.56;4997007;28;20191;-77
2023/03/29 12:10:13;;;;;;;15.27;9.07;;;10.40;97.10;;;9.80;69.02;100841.03;4996361;28;20212;-77
2023/03/29 12:12:52;;;;;;;13.83;8.53;;;10.50;97.10;;;10.02;68.94;100830.72;4996706;28;20202;-77
2023/03/29 12:15:30;;;;;;;10.30;7.70;;;10.60;97.00;;;10.12;68.07;100825.28;4996185;28;20712;-77
2023/03/29 12:18:15;;;;;;;11.10;7.17;;;10.80;96.70;;;10.29;67.46;100824.44;4996490;28;20200;-77
2023/03/29 12:20:52;;;;;;;11.57;7.90;;;10.90;96.40;;;10.56;67.68;100818.91;4995905;28;20200;-77
2023/03/29 12:23:24;;;;;;;11.43;7.20;;;11.20;96.70;;;10.45;67.03;100821.84;4996673;28;20192;-77
2023/03/29 12:26:11;;;;;;;10.07;7.47;;;11.20;95.90;;;10.51;67.57;100818.53;4995982;28;20228;-77
2023/03/29 12:29:29;;;;;;;11.60;8.20;;;11.20;96.20;;;10.49;67.79;100809.00;4995879;28;20212;-77
2023/03/29 12:32:18;;;;;;;11.20;7.80;;;11.20;96.40;;;10.50;67.99;100811.53;4991437;28;20208;-76
2023/03/29 12:35:14;;;;;;;9.77;7.57;;;11.20;96.30;;;10.62;68.04;100802.22;4996658;28;20208;-76
2023/03/29 12:38:00;;;;;;;10.90;7.10;;;11.30;96.60;;;10.71;67.96;100796.91;4995958;28;20649;-76
2023/03/29 12:40:43;;;;;;;9.40;6.40;;;11.40;96.20;;;10.77;67.51;100796.25;4996201;28;20211;-76
2023/03/29 12:43:27;;;;;;;12.67;6.63;;;11.50;96.10;;;10.74;67.18;100801.94;4995912;28;20637;-77
2023/03/29 12:46:06;;;;;;;9.40;7.27;;;11.40;96.00;;;10.67;67.41;100789.19;5015595;28;20227;-77
2023/03/29 12:48:41;;;;;;;9.03;6.40;;;11.30;95.90;;;10.73;67.81;100789.53;5015518;28;20198;-77
2023/03/29 12:51:19;;;;;;;9.37;6.60;;;11.40;96.30;;;10.80;67.98;100795.94;5015512;28;20199;-77
2023/03/29 12:53:54;;;;;;;7.57;5.83;;;11.50;96.50;;;10.89;67.43;100797.69;5016067;28;20203;-77
2023/03/29 12:56:40;;;;;;;8.63;6.07;;;11.50;95.90;;;11.00;66.87;100803.56;5014453;28;20619;-73
2023/03/29 12:59:36;;;;;;;10.60;6.70;;;11.60;95.90;;;10.94;67.14;100792.66;5014284;28;20525;-75
2023/03/29 13:02:36;;;;;;;10.20;6.67;;;11.60;95.90;;;10.95;67.10;100791.66;5015207;28;20192;-75
2023/03/29 13:05:32;;;;;;;7.73;5.73;;;11.60;96.00;;;11.02;67.42;100795.38;5014832;28;20222;-76
2023/03/29 13:08:22;;;;;;;10.07;5.87;;;11.60;96.20;;;11.12;67.82;100785.38;5015118;28;20315;-76
2023/03/29 13:10:57;;;;;;;7.97;5.40;;;11.70;96.40;;;11.20;68.01;100790.72;5014981;28;20208;-75
2023/03/29 13:13:37;;;;;;;7.50;5.10;;;11.80;96.20;;;11.15;66.99;100788.56;5014971;28;20191;-75
2023/03/29 13:16:19;;;;;;;8.43;5.77;;;11.80;95.90;;;11.22;67.71;100791.44;5014888;28;20238;-75
2023/03/29 13:19:13;;;;;;;7.90;5.17;;;11.90;96.30;;;11.22;68.01;100791.44;5014470;28;20635;-75
2023/03/29 13:22:00;;;;;;;7.47;5.47;;;11.80;96.10;;;11.37;68.24;100784.41;5014851;28;20301;-75
2023/03/29 13:25:00;;;;;;;8.10;5.23;;;12.00;96.40;;;11.36;67.99;100781.91;5014547;28;20584;-75
2023/03/29 13:27:45;;;;;;;8.30;5.80;;;12.10;96.50;;;11.31;69.14;100789.59;5014784;28;20214;-75
2023/03/29 13:30:44;;;;;;;9.97;5.73;;;12.00;96.80;;;11.12;69.93;100788.03;5014671;28;20602;-75
2023/03/29 13:33:47;;;;;;;6.87;5.70;;;11.80;97.20;;;11.19;70.27;100787.25;5014403;28;20223;-75
2023/03/29 13:36:34;;;;;;;9.10;6.00;;;11.80;97.70;;;11.02;71.12;100780.16;5013228;28;20230;-75
2023/03/29 13:39:20;;;;;;;8.80;5.90;;;11.70;97.70;;;11.07;71.55;100783.16;5014190;28;20187;-75
2023/03/29 13:42:05;;;;;;;6.70;5.23;;;11.70;98.10;;;11.05;71.87;100778.97;5014316;28;20644;-75
2023/03/29 13:44:47;;;;;;;9.87;5.00;;;11.70;98.30;;;10.86;72.63;100779.22;5014227;28;20195;-75
2023/03/29 13:47:39;;;;;;;5.73;5.03;;;11.60;98.40;;;10.90;72.82;100775.22;5014505;28;20196;-76
2023/03/29 13:50:20;;;;;;;6.20;5.20;;;11.50;98.70;;;10.79;72.96;100772.88;5014353;28;20207;-76
2023/03/29 13:53:06;;;;;;;10.53;5.60;;;11.50;98.80;;;10.78;73.21;100771.19;5014374;28;20262;-76
2023/03/29 13:55:47;;;;;;;8.93;5.77;;;11.40;98.90;;;10.71;73.94;100775.50;5014241;28;20235;-76
2023/03/29 13:58:32;;;;;;;10.30;6.67;;;11.40;99.10;;;10.56;74.74;100778.75;5014248;28;20609;-76
2023/03/29 14:01:17;;;;;;;7.03;6.13;;;11.20;99.50;;;10.66;74.66;100779.47;5014215;28;20195;-75
2023/03/29 14:03:53;;;;;;;9.23;6.97;;;11.30;99.70;;;10.64;74.96;100770.78;5014191;28;20192;-76
2023/03/29 14:06:31;;;;;;;8.97;6.40;;;11.30;99.80;;;10.51;76.19;100777.56;5014253;28;20285;-76
2023/03/29 14:09:08;;;;;;;7.07;5.77;;;11.20;99.90;;;10.63;76.16;100769.09;5014118;28;20196;-76
2023/03/29 14:11:47;;;;;;;7.97;5.73;;;11.20;99.90;;;10.67;75.67;100759.75;5013758;28;20191;-76
2023/03/29 14:14:25;;;;;;;8.77;6.43;;;11.30;99.90;;;10.69;75.15;100760.41;5014002;28;20242;-76
2023/03/29 14:17:00;;;;;;;6.50;5.83;;;11.30;99.90;;;10.75;74.72;100763.47;5013862;28;20229;-76
2023/03/29 14:19:38;;;;;;;8.83;5.83;;;11.30;99.80;;;10.76;74.71;100752.56;5013690;28;20636;-76
2023/03/29 14:22:17;;;;;;;6.97;5.57;;;11.40;99.90;;;10.76;74.50;100763.28;5014770;28;20246;-76
2023/03/29 14:24:55;;;;;;;7.50;6.00;;;11.40;99.50;;;10.77;74.42;100748.91;5014148;28;20196;-76
2023/03/29 14:27:35;;;;;;;8.17;5.97;;;11.40;99.60;;;10.82;74.30;100757.28;5013857;28;20188;-76
2023/03/29 14:30:28;;;;;;;7.20;5.83;;;11.40;99.60;;;10.82;74.68;100761.81;5014099;28;20219;-76
2023/03/29 14:33:03;;;;;;;6.80;6.10;;;11.50;99.60;;;10.85;74.33;100753.47;5013804;28;20188;-76
2023/03/29 14:35:36;;;;;;;9.00;6.07;;;11.50;99.40;;;10.97;73.33;100749.47;5013409;28;20707;-76
2023/03/29 14:38:15;;;;;;;7.77;5.50;;;11.60;99.20;;;11.04;72.61;100753.19;5014086;28;20191;-76
2023/03/29 14:40:48;;;;;;;7.47;5.70;;;11.70;98.70;;;11.01;72.12;100754.34;5013736;28;20245;-76
2023/03/29 14:43:26;;;;;;;7.43;5.63;;;11.70;98.50;;;11.01;72.09;100750.84;5013655;28;20187;-76
2023/03/29 14:46:02;;;;;;;8.17;5.77;;;11.60;98.40;;;10.99;72.47;100744.81;5017194;28;20223;-76
2023/03/29 14:48:34;;;;;;;6.20;5.23;;;11.60;98.60;;;10.99;72.83;100740.25;5017577;28;20710;-76
2023/03/29 14:51:06;;;;;;;7.80;5.60;;;11.60;98.60;;;10.94;72.35;100744.44;5017616;28;20218;-76
2023/03/29 14:53:40;;;;;;;6.13;5.17;;;11.60;98.40;;;10.96;72.31;100743.28;5017659;28;20240;-76
2023/03/29 14:56:17;;;;;;;6.77;5.30;;;11.60;98.60;;;10.95;73.44;100735.41;5018396;28;20289;-76
2023/03/29 14:58:53;;;;;;;4.90;4.47;;;11.60;98.80;;;10.89;72.52;100730.72;5017281;28;20551;-76
2023/03/29 15:01:29;;;;;;;5.50;4.97;;;11.50;98.70;;;10.94;72.40;100733.72;5017205;28;20184;-76
2023/03/29 15:04:08;;;;;;;6.70;5.03;;;11.60;98.70;;;10.92;72.83;100730.38;5017316;28;20191;-76
2023/03/29 15:06:45;;;;;;;5.83;4.30;;;11.60;98.70;;;10.92;72.72;100728.56;5017596;28;20219;-76
2023/03/29 15:09:25;;;;;;;8.83;3.83;;;11.60;98.80;;;10.92;72.99;100731.22;5017839;28;20192;-75
2023/03/29 15:12:01;;;;;;;4.23;3.83;;;11.60;98.90;;;10.90;74.01;100737.72;5017287;28;20270;-76
2023/03/29 15:14:36;;;;;;;4.60;4.20;;;11.50;99.20;;;10.88;73.59;100732.56;5017020;28;20199;-74
2023/03/29 15:17:30;;;;;;;4.93;4.27;;;11.50;99.20;;;10.89;73.57;100730.72;5017893;28;20762;-74
2023/03/29 15:20:27;;;;;;;30.90;21.07;;;11.50;99.10;;;10.84;74.48;100717.81;5017157;28;20211;-75
2023/03/29 15:23:20;;;;;;;108.17;52.43;;;11.50;99.30;;;10.88;74.18;100721.84;5017197;28;20214;-75
2023/03/29 15:25:57;;;;;;;23.50;16.37;;;11.50;99.30;;;10.93;74.01;100713.28;5017099;28;20234;-75
2023/03/29 15:28:32;;;;;;;11.63;8.73;;;11.50;99.40;;;10.89;73.68;100710.09;5016993;28;20198;-75
2023/03/29 15:31:10;;;;;;;13.10;11.77;;;11.50;99.10;;;10.89;73.90;100714.66;5016918;28;20238;-75
2023/03/29 15:33:44;;;;;;;29.27;21.17;;;11.50;99.20;;;10.88;74.14;100707.59;5017017;28;20217;-75
2023/03/29 15:36:17;;;;;;;24.87;18.10;;;11.50;99.40;;;10.90;74.19;100705.59;5016846;28;20235;-75
2023/03/29 15:38:52;;;;;;;13.20;10.50;;;11.50;99.50;;;10.89;74.20;100702.06;5016857;28;20599;-75
2023/03/29 15:41:25;;;;;;;10.83;9.63;;;11.50;99.50;;;10.88;74.25;100702.25;5017371;28;20191;-75
2023/03/29 15:43:59;;;;;;;21.63;14.90;;;11.50;99.60;;;10.90;75.02;100702.91;5016407;28;20202;-75
2023/03/29 15:46:31;;;;;;;17.43;15.10;;;11.50;99.90;;;10.90;74.64;100694.88;5016776;28;20238;-75
2023/03/29 15:49:05;;;;;;;18.27;15.83;;;11.50;99.60;;;10.90;74.57;100694.88;5016622;28;20198;-75
2023/03/29 15:51:37;;;;;;;17.23;12.80;;;11.50;99.70;;;10.87;75.40;100685.34;5016695;28;20218;-75
2023/03/29 15:54:09;;;;;;;25.83;20.80;;;11.50;99.80;;;10.85;75.19;100681.16;5016593;28;20196;-75
2023/03/29 15:56:51;;;;;;;30.97;22.37;;;11.50;99.80;;;10.84;75.41;100668.75;5015508;28;20598;-75
2023/03/29 15:59:23;;;;;;;12.87;10.37;;;11.50;99.90;;;10.78;75.30;100666.72;5016434;28;20215;-75
2023/03/29 16:01:56;;;;;;;25.77;19.37;;;11.40;99.80;;;10.73;75.61;100664.53;5016072;28;20210;-75
2023/03/29 16:04:30;;;;;;;27.80;22.20;;;11.40;99.90;;;10.79;75.72;100671.91;5016239;28;20239;-76
2023/03/29 16:07:02;;;;;;;29.77;22.10;;;11.40;99.90;;;10.75;75.55;100665.22;5016315;28;20235;-76
2023/03/29 16:09:34;;;;;;;10.47;9.37;;;11.40;99.90;;;10.76;76.23;100666.88;5016254;28;20214;-76
2023/03/29 16:12:08;;;;;;;30.37;26.30;;;11.40;99.90;;;10.79;75.50;100665.75;5016114;28;20222;-76
2023/03/29 16:14:41;;;;;;;22.60;17.50;;;11.40;99.90;;;10.80;75.64;100664.72;5016207;28;20273;-76
2023/03/29 16:17:14;;;;;;;20.43;15.53;;;11.40;99.90;;;10.77;76.08;100670.41;5016080;28;20226;-76
2023/03/29 16:19:47;;;;;;;16.00;13.77;;;11.40;99.90;;;10.78;75.52;100661.38;5016078;28;20191;-76
2023/03/29 16:22:19;;;;;;;16.83;12.73;;;11.40;99.90;;;10.77;75.63;100665.06;5016057;28;20195;-76
2023/03/29 16:24:52;;;;;;;14.53;12.83;;;11.40;99.90;;;10.73;75.50;100661.00;5015667;28;20196;-76
2023/03/29 16:27:24;;;;;;;14.27;12.07;;;11.30;99.90;;;10.72;75.67;100667.41;5016078;28;20196;-76
2023/03/29 16:29:58;;;;;;;15.20;11.90;;;11.30;99.90;;;10.75;75.67;100659.03;5015857;28;20188;-76
2023/03/29 16:32:30;;;;;;;13.33;11.37;;;11.40;99.90;;;10.72;75.72;100665.53;5015451;28;20211;-77
2023/03/29 16:35:03;;;;;;;12.03;10.83;;;11.30;99.90;;;10.73;75.55;100661.00;5015430;28;20539;-74
2023/03/29 16:37:35;;;;;;;12.83;10.17;;;11.30;99.90;;;10.71;75.68;100655.00;5015737;28;20230;-75
2023/03/29 16:40:11;;;;;;;12.53;10.83;;;11.40;99.90;;;10.72;75.96;100656.69;5015673;28;20199;-75
2023/03/29 16:42:43;;;;;;;12.60;10.43;;;11.30;99.90;;;10.71;76.14;100668.38;5015671;28;20559;-75
2023/03/29 16:45:16;;;;;;;15.37;10.67;;;11.30;99.90;;;10.71;76.14;100655.00;5015483;28;20235;-75
2023/03/29 16:47:48;;;;;;;13.97;11.77;;;11.30;99.90;;;10.67;76.70;100663.38;5015126;28;20641;-75
2023/03/29 16:50:23;;;;;;;13.53;11.40;;;11.30;99.90;;;10.69;76.89;100664.03;5015440;28;20250;-74
2023/03/29 16:52:55;;;;;;;15.53;13.60;;;11.30;99.90;;;10.71;76.11;100665.72;5015322;28;20207;-75
2023/03/29 16:55:27;;;;;;;13.97;11.67;;;11.30;99.90;;;10.71;76.27;100658.53;5015250;28;20246;-74
2023/03/29 16:57:59;;;;;;;13.00;10.63;;;11.30;99.90;;;10.70;76.40;100656.84;5015353;28;20231;-76
2023/03/29 17:00:32;;;;;;;12.87;11.03;;;11.30;99.90;;;10.69;76.41;100652.47;5015060;28;20637;-74
2023/03/29 17:03:04;;;;;;;13.10;11.63;;;11.30;99.90;;;10.67;76.89;100668.72;5015198;28;20278;-75
2023/03/29 17:05:40;;;;;;;13.47;10.70;;;11.30;99.90;;;10.65;76.72;100657.31;5014912;28;20239;-75
2023/03/29 17:08:12;;;;;;;14.97;10.27;;;11.30;99.90;;;10.61;76.77;100664.03;5014757;28;20639;-75
2023/03/29 17:10:45;;;;;;;12.70;10.27;;;11.30;99.90;;;10.63;76.77;100653.97;5014718;28;20587;-75
2023/03/29 17:13:17;;;;;;;12.83;10.60;;;11.30;99.90;;;10.66;76.39;100650.97;5015079;28;20187;-75
2023/03/29 17:15:50;;;;;;;11.23;10.07;;;11.30;99.90;;;10.67;77.02;100654.47;5014549;28;20700;-75
2023/03/29 17:18:25;;;;;;;14.23;11.53;;;11.30;99.90;;;10.60;77.50;100659.66;5014815;28;20192;-75
2023/03/29 17:21:01;;;;;;;11.67;10.57;;;11.30;99.90;;;10.64;77.71;100652.13;5014461;28;20667;-75
2023/03/29 17:23:34;;;;;;;13.03;11.63;;;11.20;99.90;;;10.58;78.18;100647.44;5014412;28;20649;-75
2023/03/29 17:26:07;;;;;;;12.10;10.83;;;11.20;99.90;;;10.59;78.28;100643.75;5014254;28;20586;-75
2023/03/29 17:28:39;;;;;;;13.23;11.10;;;11.20;99.90;;;10.59;78.18;100646.41;5014632;28;20298;-75
2023/03/29 17:31:11;;;;;;;16.37;12.37;;;11.20;99.90;;;10.58;78.87;100629.50;5014221;28;20565;-75
2023/03/29 17:33:43;;;;;;;14.30;11.93;;;11.20;99.90;;;10.59;78.56;100633.03;5014504;28;20191;-75
2023/03/29 17:36:17;;;;;;;13.23;11.50;;;11.20;99.90;;;10.58;78.57;100634.06;5014191;28;20712;-75
2023/03/29 17:38:49;;;;;;;12.57;11.30;;;11.20;99.90;;;10.57;78.64;100625.19;5014562;28;20270;-75
2023/03/29 17:41:21;;;;;;;13.03;11.37;;;11.20;99.90;;;10.58;78.75;100624.16;5014420;28;20553;-75
2023/03/29 17:43:53;;;;;;;14.23;12.10;;;11.20;99.90;;;10.59;78.66;100617.81;5014598;28;20278;-75
2023/03/29 17:46:25;;;;;;;14.20;11.13;;;11.20;99.90;;;10.61;78.62;100613.16;5014427;28;20227;-75
2023/03/29 17:48:58;;;;;;;13.57;10.30;;;11.20;99.90;;;10.58;78.99;100608.09;5014416;28;20192;-75
2023/03/29 17:51:31;;;;;;;14.53;10.90;;;11.20;99.90;;;10.59;78.80;100611.63;5014561;28;20291;-75
2023/03/29 17:54:03;;;;;;;21.90;15.23;;;11.20;99.90;;;10.58;78.97;100609.97;5014055;28;20641;-75
2023/03/29 17:56:35;;;;;;;22.90;17.00;;;11.20;99.90;;;10.57;78.63;100614.47;5013926;28;20234;-75
2023/03/29 17:59:07;;;;;;;23.53;17.77;;;11.20;99.90;;;10.56;79.30;100612.78;5014258;28;20196;-75
2023/03/29 18:01:39;;;;;;;19.83;15.40;;;11.10;99.90;;;10.56;78.93;100607.44;5013893;28;20199;-75
2023/03/29 18:04:11;;;;;;;15.80;13.47;;;11.10;99.90;;;10.56;78.86;100606.59;5013819;28;20561;-75
2023/03/29 18:06:44;;;;;;;13.13;11.73;;;11.10;99.90;;;10.54;78.87;100604.09;5014080;28;20238;-75
2023/03/29 18:09:17;;;;;;;14.90;13.07;;;11.10;99.90;;;10.54;79.02;100601.41;5013815;28;20227;-75
2023/03/29 18:11:49;;;;;;;18.10;12.83;;;11.10;99.90;;;10.52;79.08;100597.19;5014249;28;20212;-75
2023/03/29 18:14:21;;;;;;;16.30;13.27;;;11.10;99.90;;;10.50;78.84;100596.53;5014026;28;20203;-75
2023/03/29 18:16:52;;;;;;;17.00;14.90;;;11.10;99.90;;;10.48;78.96;100604.72;5013956;28;20227;-75
2023/03/29 18:19:24;;;;;;;15.80;14.20;;;11.00;99.90;;;10.48;79.12;100591.34;5013544;28;20246;-75
2023/03/29 18:21:58;;;;;;;18.13;15.53;;;11.10;99.90;;;10.46;79.06;100600.53;5013920;28;20215;-75
2023/03/29 18:24:30;;;;;;;18.67;14.70;;;11.00;99.90;;;10.44;79.34;100599.88;5013633;28;20199;-75
2023/03/29 18:27:01;;;;;;;16.00;14.37;;;11.00;99.90;;;10.43;79.61;100601.72;5013767;28;20741;-75
2023/03/29 18:29:33;;;;;;;19.07;16.00;;;11.00;99.90;;;10.42;79.92;100601.84;5013972;28;20563;-75
2023/03/29 18:32:05;;;;;;;21.50;19.03;;;11.00;99.90;;;10.40;79.47;100604.72;5013742;28;20303;-75
2023/03/29 18:34:38;;;;;;;21.53;19.13;;;10.90;99.90;;;10.40;79.75;100606.56;5014057;28;20211;-75
2023/03/29 18:37:13;;;;;;;23.33;19.13;;;11.00;99.90;;;10.38;79.57;100614.72;5013408;28;20234;-75
2023/03/29 18:39:46;;;;;;;20.70;18.43;;;10.90;99.90;;;10.35;80.09;100600.84;5013799;28;20242;-75
2023/03/29 18:42:20;;;;;;;25.37;21.83;;;10.90;99.90;;;10.35;79.66;100601.69;5013733;28;20184;-75
2023/03/29 18:44:52;;;;;;;32.03;26.40;;;10.90;99.90;;;10.34;79.65;100613.41;5013713;28;20226;-75
2023/03/29 18:47:24;;;;;;;34.37;26.50;;;10.90;99.90;;;10.34;79.75;100608.06;5013675;28;20199;-75
2023/03/29 18:49:56;;;;;;;33.13;26.43;;;10.90;99.90;;;10.30;79.88;100605.84;5013695;28;20246;-75
2023/03/29 18:52:29;;;;;;;27.40;23.27;;;10.90;99.90;;;10.29;79.93;100610.34;5013572;28;20303;-75
2023/03/29 18:55:01;;;;;;;24.83;21.03;;;10.90;99.90;;;10.32;79.90;100615.38;5013543;28;20199;-75
2023/03/29 18:57:33;;;;;;;23.70;20.53;;;10.90;99.90;;;10.29;79.74;100615.72;5013607;28;20192;-75
2023/03/29 19:00:10;;;;;;;20.67;18.43;;;10.80;99.90;;;10.29;79.64;100609.50;5013585;28;20278;-75
2023/03/29 19:02:42;;;;;;;20.77;17.80;;;10.90;99.90;;;10.28;79.88;100619.38;5013588;28;20195;-75
2023/03/29 19:05:14;;;;;;;21.13;17.53;;;10.90;99.90;;;10.27;79.81;100611.53;5013182;28;20330;-75
2023/03/29 19:07:48;;;;;;;21.03;17.00;;;10.80;99.90;;;10.24;79.61;100601.97;5013507;28;20213;-75
2023/03/29 19:10:20;;;;;;;19.67;14.83;;;10.80;99.90;;;10.23;79.81;100604.81;5013506;28;20192;-75
2023/03/29 19:12:52;;;;;;;17.07;15.30;;;10.80;99.90;;;10.20;79.79;100595.28;5013078;28;20585;-75
2023/03/29 19:15:24;;;;;;;15.97;14.27;;;10.70;99.90;;;10.19;79.92;100593.59;5013389;28;20227;-75
2023/03/29 19:17:56;;;;;;;17.03;14.57;;;10.70;99.90;;;10.16;80.19;100596.59;5013149;28;20715;-75
2023/03/29 19:20:28;;;;;;;15.53;13.67;;;10.70;99.90;;;10.16;80.21;100588.56;5013410;28;20322;-75
2023/03/29 19:23:02;;;;;;;16.97;13.93;;;10.70;99.90;;;10.14;80.50;100582.53;5013054;28;20192;-75
2023/03/29 19:25:35;;;;;;;17.40;14.10;;;10.70;99.90;;;10.10;80.17;100579.31;5012965;28;20228;-75
2023/03/29 19:28:07;;;;;;;14.17;12.33;;;10.70;99.90;;;10.11;80.01;100583.66;5013021;28;20644;-75
2023/03/29 19:30:40;;;;;;;16.90;13.80;;;10.70;99.90;;;10.11;80.05;100581.00;5013302;28;20198;-75
2023/03/29 19:33:13;;;;;;;17.50;13.77;;;10.70;99.90;;;10.11;80.17;100564.94;5016831;28;20223;-75
2023/03/29 19:35:45;;;;;;;17.43;13.50;;;10.70;99.90;;;10.12;80.34;100568.47;5016798;28;20277;-75
2023/03/29 19:38:18;;;;;;;15.90;12.13;;;10.60;99.90;;;10.11;80.67;100564.09;5016548;28;20645;-75
2023/03/29 19:40:51;;;;;;;14.10;11.97;;;10.70;99.90;;;10.08;80.98;100554.56;5016487;28;20246;-75
2023/03/29 19:43:23;;;;;;;13.83;12.30;;;10.70;99.90;;;10.08;80.89;100559.06;5016770;28;20198;-75
2023/03/29 19:45:55;;;;;;;13.67;12.07;;;10.70;99.90;;;10.08;81.72;100564.41;5016331;28;20742;-75
2023/03/29 19:48:27;;;;;;;13.60;12.00;;;10.60;99.90;;;10.05;81.70;100559.41;5017213;28;20188;-75
2023/03/29 19:51:03;;;;;;;14.43;12.23;;;10.60;99.90;;;10.03;81.91;100553.38;5016590;28;20191;-75
2023/03/29 19:53:37;;;;;;;14.33;12.27;;;10.60;99.90;;;9.99;82.35;100547.53;5016503;28;20211;-75
2023/03/29 19:56:12;;;;;;;15.73;12.33;;;10.50;99.90;;;9.98;82.33;100545.84;5016132;28;20313;-75
2023/03/29 19:58:43;;;;;;;16.77;12.30;;;10.50;99.90;;;9.97;82.59;100529.94;5016453;28;20202;-75
2023/03/29 20:01:19;;;;;;;14.97;13.03;;;10.50;99.90;;;9.97;82.29;100540.63;5016422;28;20188;-75
2023/03/29 20:03:53;;;;;;;15.87;13.23;;;10.50;99.90;;;9.94;82.42;100530.25;5016298;28;20192;-75
2023/03/29 20:06:25;;;;;;;15.47;11.93;;;10.50;99.90;;;9.93;82.48;100534.78;5015910;28;20263;-75
2023/03/29 20:08:58;;;;;;;15.13;12.80;;;10.50;99.90;;;9.91;83.05;100525.25;5016213;28;20207;-75
2023/03/29 20:11:30;;;;;;;15.53;12.30;;;10.50;99.90;;;9.90;82.97;100519.03;5015902;28;20721;-75
2023/03/29 20:14:01;;;;;;;14.23;12.40;;;10.40;99.90;;;9.84;83.44;100529.56;5016091;28;20222;-75
2023/03/29 20:16:33;;;;;;;14.87;12.00;;;10.40;99.90;;;9.85;82.91;100531.25;5016072;28;20238;-75
2023/03/29 20:19:06;;;;;;;14.50;12.33;;;10.40;99.90;;;9.83;83.43;100518.00;5016121;28;20192;-75
2023/03/29 20:21:38;;;;;;;17.93;12.47;;;10.40;99.90;;;9.79;83.62;100513.16;5016045;28;20199;-75
2023/03/29 20:24:12;;;;;;;13.73;11.30;;;10.40;99.90;;;9.79;83.86;100510.50;5015640;28;20192;-75
2023/03/29 20:26:44;;;;;;;17.60;11.77;;;10.30;99.90;;;9.77;83.92;100504.44;5015901;28;20222;-75
2023/03/29 20:29:16;;;;;;;18.40;13.20;;;10.30;99.90;;;9.78;83.97;100487.44;5015880;28;20210;-75
2023/03/29 20:31:48;;;;;;;16.97;12.97;;;10.40;99.90;;;9.79;84.12;100478.41;5015834;28;20188;-75
2023/03/29 20:34:20;;;;;;;15.47;12.60;;;10.40;99.90;;;9.75;83.79;100467.22;5015435;28;20265;-75
2023/03/29 20:36:53;;;;;;;13.50;11.10;;;10.30;99.90;;;9.75;83.76;100463.69;5015665;28;20231;-75
2023/03/29 20:39:28;;;;;;;14.33;10.67;;;10.30;99.90;;;9.76;83.73;100462.69;5015736;28;20291;-75
2023/03/29 20:42:00;;;;;;;11.70;10.33;;;10.30;99.90;;;9.73;83.62;100460.31;5014963;28;20702;-75
2023/03/29 20:44:32;;;;;;;12.43;10.60;;;10.30;99.90;;;9.74;84.03;100464.69;5015624;28;20202;-75
2023/03/29 20:47:06;;;;;;;14.50;10.30;;;10.30;99.90;;;9.71;83.78;100460.50;5015144;28;20256;-75
2023/03/29 20:49:40;;;;;;;10.83;9.73;;;10.30;99.90;;;9.71;83.90;100459.66;5015492;28;20199;-75
2023/03/29 20:52:16;;;;;;;13.37;11.20;;;10.30;99.90;;;9.69;83.69;100452.63;5015513;28;20191;-75
2023/03/29 20:54:51;;;;;;;12.50;11.03;;;10.20;99.90;;;9.67;84.10;100441.28;5015051;28;20697;-75
2023/03/29 20:57:23;;;;;;;11.27;10.07;;;10.30;99.90;;;9.64;84.15;100454.97;5015090;28;20564;-75
2023/03/29 20:59:55;;;;;;;13.47;10.90;;;10.20;99.90;;;9.65;83.98;100445.13;5015052;28;20743;-75
2023/03/29 21:02:27;;;;;;;19.03;13.87;;;10.20;99.90;;;9.63;84.31;100453.28;5015322;28;20199;-75
2023/03/29 21:05:01;;;;;;;15.57;12.87;;;10.20;99.90;;;9.64;84.11;100446.94;5014937;28;20223;-75
2023/03/29 21:07:33;;;;;;;16.10;12.47;;;10.20;99.90;;;9.62;84.47;100446.25;5014884;28;20561;-75
2023/03/29 21:10:07;;;;;;;13.97;11.93;;;10.20;99.90;;;9.62;84.59;100440.91;5014846;28;20640;-75
2023/03/29 21:12:39;;;;;;;12.27;10.97;;;10.20;99.90;;;9.61;84.61;100444.59;5014794;28;20562;-75
2023/03/29 21:15:13;;;;;;;12.47;11.10;;;10.20;99.90;;;9.60;84.88;100445.59;5015128;28;20219;-75
2023/03/29 21:17:45;;;;;;;13.57;10.77;;;10.20;99.90;;;9.58;84.97;100450.28;5015037;28;20621;-75
2023/03/29 21:20:17;;;;;;;12.40;10.03;;;10.10;99.90;;;9.59;84.92;100451.09;5014980;28;20231;-75
2023/03/29 21:22:49;;;;;;;11.07;9.77;;;10.20;99.90;;;9.58;85.06;100444.94;5014587;28;20199;-75
2023/03/29 21:25:22;;;;;;;11.60;10.40;;;10.10;99.90;;;9.58;84.63;100439.59;5014807;28;20247;-75
2023/03/29 21:27:54;;;;;;;14.43;11.17;;;10.20;99.90;;;9.59;84.63;100427.88;5014821;28;20203;-75
2023/03/29 21:30:26;;;;;;;13.27;11.67;;;10.20;99.90;;;9.60;84.28;100423.38;5014465;28;20667;-75
2023/03/29 21:33:01;;;;;;;12.10;10.40;;;10.20;99.90;;;9.59;84.22;100422.53;5014631;28;20192;-75
2023/03/29 21:35:34;;;;;;;10.43;8.80;;;10.20;99.90;;;9.57;84.36;100416.53;5014290;28;20258;-75
2023/03/29 21:38:06;;;;;;;12.17;9.90;;;10.20;99.90;;;9.58;84.26;100412.00;5014272;28;20235;-75
2023/03/29 21:40:40;;;;;;;11.97;10.67;;;10.20;99.90;;;9.58;84.16;100412.84;5014514;28;20198;-75
2023/03/29 21:43:12;;;;;;;12.50;9.77;;;10.20;99.90;;;9.58;84.50;100407.50;5014483;28;20207;-75
2023/03/29 21:45:47;;;;;;;11.37;9.23;;;10.20;99.90;;;9.58;85.00;100414.69;5014388;28;20227;-75
2023/03/29 21:48:19;;;;;;;10.40;8.83;;;10.20;99.90;;;9.56;84.71;100409.50;5014185;28;20648;-75
2023/03/29 21:50:52;;;;;;;9.73;8.27;;;10.20;99.90;;;9.57;85.08;100405.81;5014613;28;20191;-75
2023/03/29 21:53:25;;;;;;;11.03;7.93;;;10.10;99.90;;;9.57;84.56;100399.63;5013657;28;20199;-75
2023/03/29 21:55:59;;;;;;;11.23;8.30;;;10.20;99.90;;;9.57;84.38;100392.47;5013703;28;20227;-75
2023/03/29 21:58:30;;;;;;;9.17;7.40;;;10.20;99.90;;;9.57;84.89;100400.47;5013989;28;20661;-75
2023/03/29 22:01:06;;;;;;;10.03;7.93;;;10.20;99.90;;;9.56;85.45;100398.81;5014222;28;20194;-75
2023/03/29 22:03:39;;;;;;;10.13;7.77;;;10.20;99.90;;;9.56;85.44;100401.47;5014213;28;20191;-75
2023/03/29 22:06:14;;;;;;;9.87;8.40;;;10.20;99.90;;;9.57;85.88;100395.13;5013966;28;20246;-75
2023/03/29 22:08:49;;;;;;;8.90;7.40;;;10.20;99.90;;;9.56;86.15;100393.44;5014073;28;20202;-75
2023/03/29 22:11:24;;;;;;;10.53;8.37;;;10.10;99.90;;;9.56;86.95;100389.94;5014145;28;20198;-75
2023/03/29 22:13:57;;;;;;;12.40;8.17;;;10.10;99.90;;;9.55;86.68;100391.81;5014019;28;20273;-75
2023/03/29 22:16:30;;;;;;;8.80;7.77;;;10.20;99.90;;;9.55;86.85;100381.13;5013942;28;20223;-75
2023/03/29 22:19:02;;;;;;;11.00;9.23;;;10.20;99.90;;;9.54;86.94;100379.44;5013913;28;20610;-75
2023/03/29 22:21:36;;;;;;;9.90;8.63;;;10.20;99.90;;;9.53;87.29;100372.41;5013937;28;20192;-75
2023/03/29 22:24:09;;;;;;;10.37;8.77;;;10.10;99.90;;;9.53;87.14;100361.72;5013973;28;20191;-75
2023/03/29 22:26:44;;;;;;;12.07;9.30;;;10.10;99.90;;;9.51;87.78;100352.19;5013516;28;20242;-75
2023/03/29 22:29:16;;;;;;;13.13;10.33;;;10.10;99.90;;;9.48;87.74;100348.03;5013704;28;20599;-75
2023/03/29 22:31:48;;;;;;;12.70;9.50;;;10.10;99.90;;;9.49;87.68;100348.81;5013770;28;20202;-75
2023/03/29 22:34:19;;;;;;;10.90;8.97;;;10.10;99.90;;;9.48;88.01;100347.19;5013766;28;20298;-75
2023/03/29 22:36:51;;;;;;;11.73;9.27;;;10.10;99.90;;;9.47;88.00;100350.84;5013392;28;20612;-75
2023/03/29 22:39:23;;;;;;;10.83;8.40;;;10.10;99.90;;;9.45;88.21;100347.50;5013764;28;20195;-75
2023/03/29 22:41:56;;;;;;;9.17;8.20;;;10.10;99.90;;;9.45;88.03;100337.63;5013761;28;20195;-75